Time;durP1;ratioP1;P1;durP2;ratioP2;P2;SDS_P1;SDS_P2;PMS_P1;PMS_P2;Temp;Humidity;BMP_temperature;BMP_pressure;BME280_temperature;BME280_humidity;BME280_pressure;Samples;Min_cycle;Max_cycle;Signal;HPM_P1;HPM_P2
2022/07/20 00:01:49;;;;;;;6.50;5.55;;;;;;;;;;5039023;28;20210;-69
2022/07/20 00:04:17;;;;;;;6.93;5.90;;;;;;;;;;5016762;28;20949;-68
2022/07/20 00:06:44;;;;;;;8.05;5.57;;;;;;;;;;5026534;28;20234;-69
2022/07/20 00:11:58;;;;;;;5.65;5.03;;;;;;;;;;5059473;28;20264;-70
2022/07/20 00:14:25;;;;;;;6.40;5.28;;;;;;;;;;5048265;28;20210;-68
2022/07/20 00:16:52;;;;;;;6.90;5.22;;;;;;;;;;5026947;28;20296;-69
2022/07/20 00:19:20;;;;;;;6.82;5.72;;;;;;;;;;5043458;28;20213;-70
2022/07/20 00:21:48;;;;;;;8.13;5.28;;;;;;;;;;5044240;28;20201;-70
2022/07/20 00:24:15;;;;;;;6.82;5.20;;;;;;;;;;5020788;28;20213;-69
2022/07/20 00:26:42;;;;;;;7.68;5.00;;;;;;;;;;5024396;28;20240;-69
2022/07/20 00:29:10;;;;;;;9.63;5.20;;;;;;;;;;5045794;28;20287;-69
2022/07/20 00:31:37;;;;;;;8.50;5.43;;;;;;;;;;5021006;28;20210;-68
2022/07/20 00:34:05;;;;;;;8.48;5.13;;;;;;;;;;5040256;28;20206;-71
2022/07/20 00:36:32;;;;;;;6.50;5.40;;;;;;;;;;5039184;28;20252;-70
2022/07/20 00:39:00;;;;;;;9.25;5.30;;;;;;;;;;5023131;28;20221;-69
2022/07/20 00:41:27;;;;;;;6.50;5.50;;;;;;;;;;5022556;28;20199;-69
2022/07/20 00:43:59;;;;;;;6.90;5.18;;;;;;;;;;5042278;28;20229;-70
2022/07/20 00:46:28;;;;;;;6.97;5.30;;;;;;;;;;5028478;28;20590;-70
2022/07/20 00:48:56;;;;;;;8.40;5.28;;;;;;;;;;5042643;28;20202;-69
2022/07/20 00:51:23;;;;;;;6.10;4.97;;;;;;;;;;5018809;28;20594;-70
2022/07/20 00:53:52;;;;;;;7.82;5.22;;;;;;;;;;5034954;28;20277;-70
2022/07/20 00:56:20;;;;;;;6.50;5.28;;;;;;;;;;5026511;28;20242;-69
2022/07/20 00:58:48;;;;;;;5.90;4.90;;;;;;;;;;5038172;28;20656;-70
2022/07/20 01:01:17;;;;;;;6.93;5.40;;;;;;;;;;5019890;28;20203;-70
2022/07/20 01:03:45;;;;;;;9.90;5.22;;;;;;;;;;5021503;28;20234;-70
2022/07/20 01:06:13;;;;;;;5.03;4.53;;;;;;;;;;5022947;28;20232;-68
2022/07/20 01:08:40;;;;;;;6.57;5.10;;;;;;;;;;5043764;28;20205;-67
2022/07/20 01:11:08;;;;;;;5.47;4.97;;;;;;;;;;5035662;28;20206;-70
2022/07/20 01:13:35;;;;;;;7.57;5.40;;;;;;;;;;5024358;28;20211;-69
2022/07/20 01:16:03;;;;;;;8.38;4.95;;;;;;;;;;5020035;28;20225;-69
2022/07/20 01:18:31;;;;;;;6.13;5.05;;;;;;;;;;5021358;28;20647;-69
2022/07/20 01:21:02;;;;;;;6.43;5.00;;;;;;;;;;5017463;28;20217;-70
2022/07/20 01:23:30;;;;;;;9.20;5.07;;;;;;;;;;5035782;28;20209;-69
2022/07/20 01:25:58;;;;;;;6.43;5.05;;;;;;;;;;5028786;28;20230;-68
2022/07/20 01:28:27;;;;;;;7.45;5.28;;;;;;;;;;5044233;28;20606;-69
2022/07/20 01:30:54;;;;;;;8.30;5.18;;;;;;;;;;5042945;28;20214;-70
2022/07/20 01:33:22;;;;;;;7.55;5.00;;;;;;;;;;5030248;28;20621;-70
2022/07/20 01:35:50;;;;;;;5.22;4.45;;;;;;;;;;5040897;28;20218;-70
2022/07/20 01:38:17;;;;;;;5.75;4.80;;;;;;;;;;5046559;28;20228;-70
2022/07/20 01:40:45;;;;;;;8.77;4.88;;;;;;;;;;5028177;28;20198;-69
2022/07/20 01:43:12;;;;;;;7.75;5.25;;;;;;;;;;5042597;28;20210;-70
2022/07/20 01:45:40;;;;;;;7.32;4.93;;;;;;;;;;5045948;28;20213;-69
2022/07/20 01:48:07;;;;;;;6.70;4.65;;;;;;;;;;5023917;28;20721;-69
2022/07/20 01:50:35;;;;;;;8.70;4.80;;;;;;;;;;5019291;28;20311;-69
2022/07/20 01:53:02;;;;;;;7.63;5.20;;;;;;;;;;5027002;28;20595;-67
2022/07/20 01:55:30;;;;;;;7.97;4.80;;;;;;;;;;5026629;28;20199;-69
2022/07/20 01:57:57;;;;;;;5.57;4.70;;;;;;;;;;5042406;28;20229;-69
2022/07/20 02:00:25;;;;;;;9.25;5.13;;;;;;;;;;5028019;28;20198;-69
2022/07/20 02:02:53;;;;;;;6.43;5.57;;;;;;;;;;5022746;28;20216;-70
2022/07/20 02:05:21;;;;;;;5.28;4.78;;;;;;;;;;5053342;28;20202;-69
2022/07/20 02:07:48;;;;;;;7.55;5.18;;;;;;;;;;5026628;28;20212;-70
2022/07/20 02:10:16;;;;;;;6.88;4.97;;;;;;;;;;5030649;28;20255;-67
2022/07/20 02:12:43;;;;;;;5.75;4.72;;;;;;;;;;5034136;28;20214;-69
2022/07/20 02:15:11;;;;;;;5.22;4.68;;;;;;;;;;5033548;28;20245;-70
2022/07/20 02:17:39;;;;;;;6.68;4.80;;;;;;;;;;5031056;28;20229;-69
2022/07/20 02:20:06;;;;;;;8.02;4.70;;;;;;;;;;5030926;28;20615;-69
2022/07/20 02:22:34;;;;;;;7.13;5.03;;;;;;;;;;5047989;28;20198;-70
2022/07/20 02:25:01;;;;;;;5.53;4.53;;;;;;;;;;5032613;28;20718;-68
2022/07/20 02:27:28;;;;;;;6.88;4.72;;;;;;;;;;5035181;28;20234;-68
2022/07/20 02:29:56;;;;;;;6.50;4.80;;;;;;;;;;5064565;28;20201;-69
2022/07/20 02:32:23;;;;;;;5.68;4.85;;;;;;;;;;5054538;28;20219;-69
2022/07/20 02:34:51;;;;;;;6.90;4.50;;;;;;;;;;5041283;28;20265;-69
2022/07/20 02:37:18;;;;;;;5.45;4.80;;;;;;;;;;5052510;28;20279;-69
2022/07/20 02:39:45;;;;;;;7.18;4.53;;;;;;;;;;5042017;28;20293;-69
2022/07/20 02:42:13;;;;;;;6.65;4.90;;;;;;;;;;5028411;28;20206;-68
2022/07/20 02:44:40;;;;;;;6.55;4.63;;;;;;;;;;5041573;28;20635;-69
2022/07/20 02:47:08;;;;;;;4.95;4.43;;;;;;;;;;5067599;28;20234;-69
2022/07/20 02:49:35;;;;;;;8.80;5.03;;;;;;;;;;5034572;28;20242;-69
2022/07/20 02:52:02;;;;;;;5.00;4.50;;;;;;;;;;5037840;28;20285;-69
2022/07/20 02:54:30;;;;;;;5.75;5.15;;;;;;;;;;5050759;28;20311;-69
2022/07/20 02:56:57;;;;;;;6.18;4.45;;;;;;;;;;5050570;28;20255;-69
2022/07/20 02:59:24;;;;;;;5.35;4.72;;;;;;;;;;5046159;28;20195;-69
2022/07/20 03:01:52;;;;;;;5.90;4.85;;;;;;;;;;5060486;28;20260;-69
2022/07/20 03:04:19;;;;;;;7.63;5.00;;;;;;;;;;5029546;28;20210;-68
2022/07/20 03:06:47;;;;;;;5.97;5.00;;;;;;;;;;5026345;28;20282;-69
2022/07/20 03:09:14;;;;;;;8.57;5.38;;;;;;;;;;5034314;28;20206;-69
2022/07/20 03:11:43;;;;;;;6.75;4.90;;;;;;;;;;5032900;28;20209;-70
2022/07/20 03:14:10;;;;;;;6.30;5.15;;;;;;;;;;5051997;28;20245;-70
2022/07/20 03:16:37;;;;;;;5.45;4.95;;;;;;;;;;5036269;28;20222;-69
2022/07/20 03:19:05;;;;;;;6.30;4.90;;;;;;;;;;5071816;28;20853;-69
2022/07/20 03:21:39;;;;;;;6.90;5.05;;;;;;;;;;5042815;28;20258;-68
2022/07/20 03:24:07;;;;;;;6.53;4.72;;;;;;;;;;5056376;28;20198;-68
2022/07/20 03:26:34;;;;;;;7.85;4.78;;;;;;;;;;5032881;28;20268;-69
2022/07/20 03:29:01;;;;;;;7.75;5.00;;;;;;;;;;5051453;28;20264;-68
2022/07/20 03:31:29;;;;;;;7.00;4.68;;;;;;;;;;5035183;28;20202;-69
2022/07/20 03:33:56;;;;;;;5.40;4.60;;;;;;;;;;5034545;28;20225;-69
2022/07/20 03:36:23;;;;;;;6.03;4.90;;;;;;;;;;5037435;28;20218;-70
2022/07/20 03:38:51;;;;;;;7.85;4.70;;;;;;;;;;5050398;28;20329;-69
2022/07/20 03:41:19;;;;;;;5.50;4.57;;;;;;;;;;5032478;28;20668;-68
2022/07/20 03:43:46;;;;;;;9.83;5.47;;;;;;;;;;5034030;28;20684;-69
2022/07/20 03:46:17;;;;;;;9.85;5.63;;;;;;;;;;5047725;28;20238;-68
2022/07/20 03:48:45;;;;;;;6.95;5.72;;;;;;;;;;5030827;28;20221;-69
2022/07/20 03:51:14;;;;;;;6.72;5.55;;;;;;;;;;5044613;28;20210;-68
2022/07/20 03:53:41;;;;;;;8.68;5.25;;;;;;;;;;5034967;28;20217;-69
2022/07/20 03:56:11;;;;;;;7.23;5.40;;;;;;;;;;5050519;28;20229;-69
2022/07/20 03:58:39;;;;;;;6.30;5.05;;;;;;;;;;5046882;28;20238;-69
2022/07/20 04:01:06;;;;;;;6.70;4.80;;;;;;;;;;5033807;28;20198;-69
2022/07/20 04:03:33;;;;;;;6.77;5.77;;;;;;;;;;5024987;28;20228;-69
2022/07/20 04:06:04;;;;;;;11.10;5.70;;;;;;;;;;5035762;28;20596;-69
2022/07/20 04:08:31;;;;;;;10.13;5.67;;;;;;;;;;5037681;28;20578;-70
2022/07/20 04:11:00;;;;;;;5.97;5.37;;;;;;;;;;5047004;28;20665;-69
2022/07/20 04:13:27;;;;;;;7.77;5.30;;;;;;;;;;5028079;28;20209;-69
2022/07/20 04:15:55;;;;;;;8.43;6.00;;;;;;;;;;5048675;28;20222;-69
2022/07/20 04:18:23;;;;;;;12.03;5.63;;;;;;;;;;5044128;28;20250;-69
2022/07/20 04:20:50;;;;;;;10.35;5.47;;;;;;;;;;5023655;28;20259;-69
2022/07/20 04:23:17;;;;;;;9.27;5.90;;;;;;;;;;5020720;28;20744;-69
2022/07/20 04:25:45;;;;;;;9.27;5.68;;;;;;;;;;5032514;28;20704;-69
2022/07/20 04:28:12;;;;;;;10.70;5.97;;;;;;;;;;5028615;28;20281;-69
2022/07/20 04:30:40;;;;;;;7.95;5.80;;;;;;;;;;5028528;28;20218;-69
2022/07/20 04:33:07;;;;;;;8.20;6.07;;;;;;;;;;5025382;28;20791;-69
2022/07/20 04:35:35;;;;;;;9.32;5.82;;;;;;;;;;5031296;28;20210;-69
2022/07/20 04:38:02;;;;;;;17.85;6.22;;;;;;;;;;5045787;28;20269;-69
2022/07/20 04:40:30;;;;;;;9.80;6.30;;;;;;;;;;5024039;28;20325;-69
2022/07/20 04:43:02;;;;;;;14.52;6.25;;;;;;;;;;5029900;28;20229;-69
2022/07/20 04:45:30;;;;;;;16.50;6.50;;;;;;;;;;5028467;28;20657;-69
2022/07/20 04:47:58;;;;;;;14.70;6.65;;;;;;;;;;5050521;28;20202;-68
2022/07/20 04:50:25;;;;;;;12.00;6.00;;;;;;;;;;5040174;28;20280;-69
2022/07/20 04:52:53;;;;;;;11.65;6.93;;;;;;;;;;5026473;28;20244;-69
2022/07/20 04:55:20;;;;;;;12.85;6.57;;;;;;;;;;5028515;28;20202;-69
2022/07/20 04:57:47;;;;;;;15.75;6.78;;;;;;;;;;5028446;28;20296;-69
2022/07/20 05:00:16;;;;;;;12.27;5.82;;;;;;;;;;5026166;28;20255;-69
2022/07/20 05:02:43;;;;;;;11.20;6.38;;;;;;;;;;5038600;28;20224;-69
2022/07/20 05:05:11;;;;;;;10.10;5.57;;;;;;;;;;5022583;28;20233;-69
2022/07/20 05:07:38;;;;;;;9.48;5.57;;;;;;;;;;5022889;28;20233;-69
2022/07/20 05:10:06;;;;;;;8.82;5.82;;;;;;;;;;5020914;28;20207;-69
2022/07/20 05:12:33;;;;;;;5.90;5.05;;;;;;;;;;5022600;28;20241;-69
2022/07/20 05:15:01;;;;;;;8.48;5.28;;;;;;;;;;5036183;28;20285;-69
2022/07/20 05:17:28;;;;;;;6.68;5.25;;;;;;;;;;5024089;28;20626;-69
2022/07/20 05:19:55;;;;;;;9.43;5.05;;;;;;;;;;5033165;28;20688;-69
2022/07/20 05:22:23;;;;;;;7.38;4.95;;;;;;;;;;5021519;28;20684;-69
2022/07/20 05:24:50;;;;;;;6.40;5.15;;;;;;;;;;5031071;28;20604;-69
2022/07/20 05:27:18;;;;;;;6.53;5.50;;;;;;;;;;5036636;28;20229;-69
2022/07/20 05:29:47;;;;;;;7.30;5.38;;;;;;;;;;5020873;28;20201;-69
2022/07/20 05:32:14;;;;;;;8.80;5.53;;;;;;;;;;5018390;28;20215;-68
2022/07/20 05:34:42;;;;;;;9.27;4.80;;;;;;;;;;5029909;28;20209;-69
2022/07/20 05:37:09;;;;;;;9.05;5.55;;;;;;;;;;5019784;28;20325;-69
2022/07/20 05:39:36;;;;;;;7.03;5.32;;;;;;;;;;5040420;28;20636;-69
2022/07/20 05:42:04;;;;;;;7.63;4.28;;;;;;;;;;5026792;28;20213;-69
2022/07/20 05:44:31;;;;;;;6.30;4.05;;;;;;;;;;5025866;28;20209;-69
2022/07/20 05:46:59;;;;;;;11.40;4.38;;;;;;;;;;5055486;28;20226;-69
2022/07/20 05:49:27;;;;;;;7.82;4.50;;;;;;;;;;5040238;28;20209;-69
2022/07/20 05:51:54;;;;;;;6.32;4.45;;;;;;;;;;5020968;28;20218;-69
2022/07/20 05:54:21;;;;;;;4.80;4.10;;;;;;;;;;5034487;28;20206;-69
2022/07/20 05:56:49;;;;;;;5.95;3.83;;;;;;;;;;5024260;28;20614;-68
2022/07/20 05:59:16;;;;;;;;;;;;;;;;;;5024129;28;20502;-69
2022/07/20 06:01:46;;;;;;;;;;;;;;;;;;5026035;28;19929;-70
2022/07/20 06:04:14;;;;;;;;;;;;;;;;;;5036166;28;20011;-69
2022/07/20 06:06:41;;;;;;;;;;;;;;;;;;5026394;28;20378;-69
2022/07/20 06:09:09;;;;;;;;;;;;;;;;;;5019157;28;19921;-69
2022/07/20 06:11:47;;;;;;;;;;;;;;;;;;5040756;28;19920;-70
2022/07/20 06:14:14;;;;;;;;;;;;;;;;;;5020242;28;19991;-69
2022/07/20 06:16:41;;;;;;;;;;;;;;;;;;5018192;28;19931;-71
2022/07/20 06:19:09;;;;;;;;;;;;;;;;;;5024118;28;19960;-69
2022/07/20 06:21:36;;;;;;;;;;;;;;;;;;5027205;28;20290;-68
2022/07/20 06:24:03;;;;;;;;;;;;;;;;;;5028771;28;19932;-69
2022/07/20 06:26:31;;;;;;;;;;;;;;;;;;5040410;28;19970;-70
2022/07/20 06:28:58;;;;;;;7.20;3.83;;;;;;;;;;5046347;28;19920;-67
2022/07/20 06:31:26;;;;;;;9.55;3.92;;;;;;;;;;5027454;28;20206;-68
2022/07/20 06:34:13;;;;;;;7.28;3.53;;;;;;;;;;5041606;28;20217;-70
2022/07/20 06:36:42;;;;;;;9.02;4.00;;;;;;;;;;5028996;28;20230;-69
2022/07/20 06:39:09;;;;;;;7.32;3.40;;;;;;;;;;5025473;28;20237;-69
2022/07/20 06:41:37;;;;;;;6.93;3.65;;;;;;;;;;5034050;28;20213;-69
2022/07/20 06:44:04;;;;;;;4.93;3.60;;;;;;;;;;5039706;28;20545;-69
2022/07/20 06:46:32;;;;;;;4.75;3.78;;;;;;;;;;5047666;28;20284;-70
2022/07/20 06:48:59;;;;;;;6.05;3.92;;;;;;;;;;5018943;28;20672;-69
2022/07/20 06:51:27;;;;;;;8.52;3.70;;;;;;;;;;5022587;28;20216;-71
2022/07/20 06:53:54;;;;;;;5.13;3.70;;;;;;;;;;5021169;28;20309;-69
2022/07/20 06:56:22;;;;;;;4.90;4.40;;;;;;;;;;5023337;28;20280;-70
2022/07/20 06:58:49;;;;;;;6.22;4.03;;;;;;;;;;5030612;28;20229;-68
2022/07/20 07:01:17;;;;;;;6.05;4.10;;;;;;;;;;5008045;28;20603;-69
2022/07/20 07:03:45;;;;;;;5.18;3.97;;;;;;;;;;5018742;28;20221;-69
2022/07/20 07:06:13;;;;;;;5.50;3.80;;;;;;;;;;5015171;28;20241;-69
2022/07/20 07:08:40;;;;;;;6.10;4.28;;;;;;;;;;5021380;28;20256;-69
2022/07/20 07:11:07;;;;;;;5.00;4.30;;;;;;;;;;5030435;28;20249;-69
2022/07/20 07:13:35;;;;;;;4.95;4.05;;;;;;;;;;5012102;28;20206;-69
2022/07/20 07:16:02;;;;;;;7.55;4.13;;;;;;;;;;5018776;28;20230;-69
2022/07/20 07:18:29;;;;;;;5.45;4.35;;;;;;;;;;5007879;28;20222;-70
2022/07/20 07:20:57;;;;;;;5.50;4.00;;;;;;;;;;5000437;28;20285;-69
2022/07/20 07:23:25;;;;;;;4.65;4.15;;;;;;;;;;5020749;28;20206;-70
2022/07/20 07:25:52;;;;;;;4.95;4.25;;;;;;;;;;5021437;28;20218;-68
2022/07/20 07:28:19;;;;;;;6.68;4.20;;;;;;;;;;5010245;28;20207;-70
2022/07/20 07:30:50;;;;;;;7.13;4.53;;;;;;;;;;5030087;28;20660;-70
2022/07/20 07:33:25;;;;;;;4.70;4.20;;;;;;;;;;5010416;28;20582;-68
2022/07/20 07:35:53;;;;;;;7.05;4.88;;;;;;;;;;5022148;28;20422;-70
2022/07/20 07:38:20;;;;;;;8.65;4.55;;;;;;;;;;5019457;28;20230;-69
2022/07/20 07:40:48;;;;;;;7.63;4.40;;;;;;;;;;5015122;28;20284;-69
2022/07/20 07:43:16;;;;;;;6.43;4.35;;;;;;;;;;5021680;28;20289;-68
2022/07/20 07:45:43;;;;;;;8.05;4.63;;;;;;;;;;5011170;28;20550;-69
2022/07/20 07:48:11;;;;;;;6.78;4.15;;;;;;;;;;5032234;28;20222;-70
2022/07/20 07:50:38;;;;;;;7.72;4.15;;;;;;;;;;5026931;28;20225;-70
2022/07/20 07:53:07;;;;;;;5.70;4.50;;;;;;;;;;5020897;28;20295;-69
2022/07/20 07:55:35;;;;;;;7.70;5.05;;;;;;;;;;5021639;28;20234;-69
2022/07/20 07:58:03;;;;;;;6.15;4.63;;;;;;;;;;5026025;28;20844;-70
2022/07/20 08:00:33;;;;;;;6.22;4.53;;;;;;;;;;5026806;28;20285;-68
2022/07/20 08:03:00;;;;;;;7.65;4.60;;;;;;;;;;5024692;28;20252;-69
2022/07/20 08:05:28;;;;;;;4.60;4.15;;;;;;;;;;5027420;28;20199;-69
2022/07/20 08:07:55;;;;;;;5.85;4.25;;;;;;;;;;5033854;28;20285;-70
2022/07/20 08:10:23;;;;;;;6.03;4.38;;;;;;;;;;5021086;28;20202;-68
2022/07/20 08:12:50;;;;;;;5.93;4.22;;;;;;;;;;5023575;28;20202;-70
2022/07/20 08:15:18;;;;;;;4.70;4.30;;;;;;;;;;5029577;28;20260;-69
2022/07/20 08:17:46;;;;;;;4.65;4.25;;;;;;;;;;5021609;28;20221;-69
2022/07/20 08:20:13;;;;;;;4.68;4.25;;;;;;;;;;5029222;28;20252;-69
2022/07/20 08:22:41;;;;;;;4.78;4.30;;;;;;;;;;5027807;28;20206;-69
2022/07/20 08:25:09;;;;;;;4.93;4.25;;;;;;;;;;5027778;28;20718;-70
2022/07/20 08:27:37;;;;;;;6.38;4.65;;;;;;;;;;5043531;28;20222;-71
2022/07/20 08:30:04;;;;;;;5.00;4.22;;;;;;;;;;5043650;28;20275;-70
2022/07/20 08:32:52;;;;;;;5.70;5.15;;;;;;;;;;5017756;28;20211;-70
2022/07/20 08:35:19;;;;;;;6.38;4.43;;;;;;;;;;5034629;28;20214;-69
2022/07/20 08:37:47;;;;;;;6.55;4.82;;;;;;;;;;5021239;28;20241;-70
2022/07/20 08:40:14;;;;;;;10.23;7.03;;;;;;;;;;5016369;28;20446;-67
2022/07/20 08:42:42;;;;;;;6.00;4.57;;;;;;;;;;5014943;28;20217;-69
2022/07/20 08:45:10;;;;;;;8.10;4.47;;;;;;;;;;5016811;28;20210;-70
2022/07/20 08:47:39;;;;;;;5.97;4.30;;;;;;;;;;5014573;28;20804;-70
2022/07/20 08:50:07;;;;;;;5.07;4.57;;;;;;;;;;5011042;28;20202;-69
2022/07/20 08:52:34;;;;;;;4.82;4.25;;;;;;;;;;5010537;28;20206;-71
2022/07/20 08:55:02;;;;;;;4.78;4.10;;;;;;;;;;5032949;28;20210;-71
2022/07/20 08:57:31;;;;;;;5.75;4.47;;;;;;;;;;5016094;28;20233;-69
2022/07/20 09:00:01;;;;;;;5.35;4.30;;;;;;;;;;5021012;28;20237;-69
2022/07/20 09:02:28;;;;;;;4.68;4.28;;;;;;;;;;5012908;28;20203;-70
2022/07/20 09:04:58;;;;;;;4.57;3.97;;;;;;;;;;5030244;28;20210;-69
2022/07/20 09:07:42;;;;;;;4.25;3.95;;;;;;;;;;5017709;28;20237;-71
2022/07/20 09:10:11;;;;;;;5.70;3.90;;;;;;;;;;5018467;28;20284;-68
2022/07/20 09:13:08;;;;;;;6.15;3.78;;;;;;;;;;5034785;28;20206;-70
2022/07/20 09:15:38;;;;;;;5.90;4.00;;;;;;;;;;4996803;28;20206;-68
2022/07/20 09:18:07;;;;;;;5.03;4.38;;;;;;;;;;5024313;28;20206;-68
2022/07/20 09:20:35;;;;;;;5.03;4.53;;;;;;;;;;5025494;28;20207;-69
2022/07/20 09:23:04;;;;;;;7.15;5.10;;;;;;;;;;5018493;28;20203;-69
2022/07/20 09:25:34;;;;;;;7.18;5.72;;;;;;;;;;5018668;28;20208;-70
2022/07/20 09:28:02;;;;;;;5.55;5.05;;;;;;;;;;5039768;28;20327;-69
2022/07/20 09:30:30;;;;;;;5.97;4.60;;;;;;;;;;5011960;28;20207;-69
2022/07/20 09:32:57;;;;;;;5.85;4.30;;;;;;;;;;5039238;28;20217;-69
2022/07/20 09:35:29;;;;;;;6.40;4.40;;;;;;;;;;5015927;28;20211;-69
2022/07/20 09:37:57;;;;;;;6.47;5.10;;;;;;;;;;5029406;28;20206;-70
2022/07/20 09:40:25;;;;;;;7.80;4.35;;;;;;;;;;5005506;28;20222;-69
2022/07/20 09:42:53;;;;;;;4.93;4.18;;;;;;;;;;5013995;28;20248;-69
2022/07/20 09:45:22;;;;;;;4.28;3.85;;;;;;;;;;5017107;28;20214;-70
2022/07/20 09:48:12;;;;;;;5.80;3.97;;;;;;;;;;5028034;28;20205;-68
2022/07/20 09:50:41;;;;;;;5.13;4.00;;;;;;;;;;5008059;28;20211;-69
2022/07/20 09:53:09;;;;;;;5.13;3.92;;;;;;;;;;5012631;28;20628;-68
2022/07/20 09:55:38;;;;;;;6.18;3.92;;;;;;;;;;5018798;28;20260;-70
2022/07/20 09:58:06;;;;;;;5.30;3.92;;;;;;;;;;5025950;28;20213;-69
2022/07/20 10:00:35;;;;;;;4.53;4.13;;;;;;;;;;5018955;28;20249;-69
2022/07/20 10:03:12;;;;;;;5.00;4.15;;;;;;;;;;5017031;28;20784;-68
2022/07/20 10:05:42;;;;;;;5.85;3.92;;;;;;;;;;5030989;28;20234;-69
2022/07/20 10:08:10;;;;;;;6.85;4.18;;;;;;;;;;5039031;28;20198;-70
2022/07/20 10:10:37;;;;;;;5.00;4.20;;;;;;;;;;5024105;28;20695;-69
2022/07/20 10:13:05;;;;;;;4.07;3.60;;;;;;;;;;5024461;28;20221;-68
2022/07/20 10:15:42;;;;;;;4.35;3.95;;;;;;;;;;5027456;28;20205;-69
2022/07/20 10:18:11;;;;;;;4.03;3.70;;;;;;;;;;5018772;28;20677;-70
2022/07/20 10:20:46;;;;;;;5.63;3.90;;;;;;;;;;5008737;28;21274;-70
2022/07/20 10:23:17;;;;;;;5.00;3.85;;;;;;;;;;4992508;28;20246;-71
2022/07/20 10:25:45;;;;;;;5.82;3.55;;;;;;;;;;5014901;28;21680;-70
2022/07/20 10:28:32;;;;;;;4.80;3.63;;;;;;;;;;5006203;28;20676;-71
2022/07/20 10:31:03;;;;;;;5.97;4.03;;;;;;;;;;5005884;28;21143;-70
2022/07/20 10:33:32;;;;;;;4.20;3.80;;;;;;;;;;5027553;28;20301;-69
2022/07/20 10:38:55;;;;;;;5.93;3.92;;;;;;;;;;5021394;28;20521;-69
2022/07/20 10:41:32;;;;;;;4.88;3.63;;;;;;;;;;5002588;28;20203;-70
2022/07/20 10:44:18;;;;;;;5.22;3.88;;;;;;;;;;5017848;28;23183;-71
2022/07/20 10:46:46;;;;;;;5.63;4.00;;;;;;;;;;5018633;28;20869;-69
2022/07/20 10:49:14;;;;;;;6.70;3.92;;;;;;;;;;5014647;28;20203;-69
2022/07/20 10:51:42;;;;;;;8.05;4.07;;;;;;;;;;5018595;28;20256;-68
2022/07/20 10:54:28;;;;;;;5.90;4.07;;;;;;;;;;5028374;28;20210;-69
2022/07/20 10:56:58;;;;;;;6.88;3.90;;;;;;;;;;5013830;28;20242;-70
2022/07/20 10:59:25;;;;;;;5.93;3.90;;;;;;;;;;4994562;28;20231;-69
2022/07/20 11:01:53;;;;;;;4.30;3.90;;;;;;;;;;5024238;28;20401;-69
2022/07/20 11:04:23;;;;;;;4.47;4.07;;;;;;;;;;5006624;28;20214;-70
2022/07/20 11:06:51;;;;;;;5.80;4.05;;;;;;;;;;5001672;28;20236;-68
2022/07/20 11:09:19;;;;;;;5.10;4.22;;;;;;;;;;5008759;28;20690;-69
2022/07/20 11:11:48;;;;;;;4.57;4.18;;;;;;;;;;5008946;28;20237;-69
2022/07/20 11:14:17;;;;;;;7.20;4.47;;;;;;;;;;5010350;28;20217;-70
2022/07/20 11:16:44;;;;;;;5.35;4.30;;;;;;;;;;5023957;28;20053;-69
2022/07/20 11:19:12;;;;;;;6.60;4.32;;;;;;;;;;5022599;28;20253;-68
2022/07/20 11:21:43;;;;;;;5.93;4.50;;;;;;;;;;5039309;28;20205;-69
2022/07/20 11:24:31;;;;;;;7.35;4.32;;;;;;;;;;5018785;28;20210;-70
2022/07/20 11:27:13;;;;;;;7.88;4.43;;;;;;;;;;5020721;28;20593;-68
2022/07/20 11:29:51;;;;;;;5.68;4.03;;;;;;;;;;5024396;28;20222;-69
2022/07/20 11:32:19;;;;;;;5.22;4.00;;;;;;;;;;5026103;28;20668;-70
2022/07/20 11:34:49;;;;;;;7.53;4.68;;;;;;;;;;5039058;28;20264;-69
2022/07/20 11:37:18;;;;;;;5.55;4.07;;;;;;;;;;5021041;28;20230;-69
2022/07/20 11:39:46;;;;;;;4.55;4.15;;;;;;;;;;5028515;28;20241;-69
2022/07/20 11:42:14;;;;;;;6.82;4.53;;;;;;;;;;5011344;28;20206;-70
2022/07/20 11:44:42;;;;;;;6.15;4.25;;;;;;;;;;5016886;28;20210;-69
2022/07/20 11:47:09;;;;;;;6.18;4.28;;;;;;;;;;5009046;28;20326;-68
2022/07/20 11:49:37;;;;;;;5.45;4.60;;;;;;;;;;5006473;28;20209;-68
2022/07/20 11:52:05;;;;;;;5.60;5.03;;;;;;;;;;5010200;28;20210;-69
2022/07/20 11:54:37;;;;;;;5.72;4.22;;;;;;;;;;5007271;28;20225;-70
2022/07/20 11:57:06;;;;;;;5.32;4.82;;;;;;;;;;5019486;28;20234;-70
2022/07/20 11:59:35;;;;;;;5.95;4.40;;;;;;;;;;5010219;28;20236;-70
2022/07/20 12:02:02;;;;;;;4.85;4.35;;;;;;;;;;5006331;28;20380;-69
2022/07/20 12:04:33;;;;;;;6.00;4.45;;;;;;;;;;5016141;28;20210;-70
2022/07/20 12:08:07;;;;;;;5.18;4.25;;;;;;;;;;5014118;28;20783;-69
2022/07/20 12:09:49;;;;;;;6.20;4.93;;;;;;;;;;5030910;28;20202;-69
2022/07/20 12:12:44;;;;;;;4.90;4.50;;;;;;;;;;5022655;28;20251;-69
2022/07/20 12:15:04;;;;;;;5.57;4.72;;;;;;;;;;5021686;28;20618;-70
2022/07/20 12:17:31;;;;;;;4.90;4.45;;;;;;;;;;5011393;28;20375;-69
2022/07/20 12:20:00;;;;;;;5.57;4.80;;;;;;;;;;5007633;28;20222;-70
2022/07/20 12:22:30;;;;;;;6.40;4.53;;;;;;;;;;5015058;28;20194;-69
2022/07/20 12:24:58;;;;;;;5.63;4.53;;;;;;;;;;5012660;28;20206;-69
2022/07/20 12:27:32;;;;;;;5.00;4.60;;;;;;;;;;5011200;28;20226;-70
2022/07/20 12:30:01;;;;;;;6.07;4.57;;;;;;;;;;5021102;28;20787;-70
2022/07/20 12:32:33;;;;;;;5.38;4.80;;;;;;;;;;5037307;28;20635;-69
2022/07/20 12:35:01;;;;;;;6.93;4.60;;;;;;;;;;5016206;28;20206;-70
2022/07/20 12:38:04;;;;;;;5.20;4.80;;;;;;;;;;5016687;28;20238;-69
2022/07/20 12:40:44;;;;;;;6.20;4.88;;;;;;;;;;4916411;28;20506;-69
2022/07/20 12:43:31;;;;;;;7.22;4.60;;;;;;;;;;5005383;28;20213;-70
2022/07/20 12:46:01;;;;;;;7.72;4.82;;;;;;;;;;5030341;28;20240;-69
2022/07/20 12:48:29;;;;;;;5.38;4.88;;;;;;;;;;5030173;28;20205;-69
2022/07/20 12:50:57;;;;;;;5.20;4.70;;;;;;;;;;5042390;28;20616;-69
2022/07/20 12:53:27;;;;;;;9.02;4.53;;;;;;;;;;5045065;28;20207;-69
2022/07/20 12:55:55;;;;;;;5.65;4.80;;;;;;;;;;5015205;28;20482;-68
2022/07/20 12:58:23;;;;;;;5.35;4.85;;;;;;;;;;5041353;28;20210;-69
2022/07/20 13:00:50;;;;;;;11.13;8.05;;;;;;;;;;5027064;28;20272;-68
2022/07/20 13:03:18;;;;;;;11.32;9.52;;;;;;;;;;5018778;28;20580;-69
2022/07/20 13:05:46;;;;;;;17.48;10.85;;;;;;;;;;5022435;28;20726;-69
2022/07/20 13:08:13;;;;;;;14.35;9.98;;;;;;;;;;5017804;28;20661;-69
2022/07/20 13:10:42;;;;;;;16.42;10.02;;;;;;;;;;5032184;28;20211;-69
2022/07/20 13:13:09;;;;;;;13.43;9.63;;;;;;;;;;5016072;28;20206;-69
2022/07/20 13:15:37;;;;;;;11.60;9.65;;;;;;;;;;5038040;28;20821;-69
2022/07/20 13:18:11;;;;;;;10.95;9.75;;;;;;;;;;5019857;28;20215;-70
2022/07/20 13:20:39;;;;;;;11.55;10.02;;;;;;;;;;5017178;28;20658;-70
2022/07/20 13:23:08;;;;;;;13.27;9.93;;;;;;;;;;5011645;28;20204;-70
2022/07/20 13:25:36;;;;;;;14.65;10.57;;;;;;;;;;5015631;28;20289;-68
2022/07/20 13:28:03;;;;;;;12.60;11.05;;;;;;;;;;5017153;28;20198;-69
2022/07/20 13:30:37;;;;;;;13.18;10.77;;;;;;;;;;5040037;28;20222;-69
2022/07/20 13:33:04;;;;;;;12.65;10.48;;;;;;;;;;5014003;28;20206;-69
2022/07/20 13:35:32;;;;;;;11.77;10.02;;;;;;;;;;5019176;28;20859;-69
2022/07/20 13:37:59;;;;;;;11.73;9.32;;;;;;;;;;5014863;28;20260;-69
2022/07/20 13:40:26;;;;;;;10.65;9.00;;;;;;;;;;5030082;28;20279;-70
2022/07/20 13:42:55;;;;;;;11.50;10.40;;;;;;;;;;5016163;28;20663;-69
2022/07/20 13:45:22;;;;;;;11.98;9.85;;;;;;;;;;5021840;28;20482;-69
2022/07/20 13:47:50;;;;;;;11.60;10.18;;;;;;;;;;5050211;28;20229;-69
2022/07/20 13:50:17;;;;;;;11.38;10.18;;;;;;;;;;5038065;28;20672;-69
2022/07/20 13:52:45;;;;;;;10.63;9.63;;;;;;;;;;5016640;28;20718;-69
2022/07/20 13:55:20;;;;;;;12.18;10.20;;;;;;;;;;5021327;28;20665;-68
2022/07/20 13:57:48;;;;;;;13.20;10.02;;;;;;;;;;5012360;28;20221;-69
2022/07/20 14:00:16;;;;;;;11.57;9.77;;;;;;;;;;5020601;28;20230;-69
2022/07/20 14:02:43;;;;;;;14.48;10.07;;;;;;;;;;5021325;28;20226;-68
2022/07/20 14:05:11;;;;;;;13.95;9.95;;;;;;;;;;5019763;28;20302;-69
2022/07/20 14:07:39;;;;;;;10.70;9.75;;;;;;;;;;5029276;28;20222;-68
2022/07/20 14:10:07;;;;;;;15.93;10.18;;;;;;;;;;5016938;28;20280;-70
2022/07/20 14:12:38;;;;;;;10.63;9.43;;;;;;;;;;5023391;28;20210;-69
2022/07/20 14:15:06;;;;;;;11.82;10.07;;;;;;;;;;5032774;28;20213;-69
2022/07/20 14:17:36;;;;;;;15.23;9.90;;;;;;;;;;5021901;28;20771;-69
2022/07/20 14:20:04;;;;;;;10.88;9.38;;;;;;;;;;5022260;28;20230;-69
2022/07/20 14:22:31;;;;;;;14.20;9.93;;;;;;;;;;5024115;28;20210;-68
2022/07/20 14:24:59;;;;;;;11.50;9.43;;;;;;;;;;5019152;28;20198;-68
2022/07/20 14:27:26;;;;;;;11.07;9.90;;;;;;;;;;5019527;28;20227;-69
2022/07/20 14:29:54;;;;;;;11.60;9.38;;;;;;;;;;5039468;28;20205;-69
2022/07/20 14:32:21;;;;;;;10.20;9.07;;;;;;;;;;5028896;28;20218;-70
2022/07/20 14:34:49;;;;;;;11.10;9.23;;;;;;;;;;5034697;28;20257;-69
2022/07/20 14:37:16;;;;;;;10.27;8.85;;;;;;;;;;5013901;28;20551;-69
2022/07/20 14:39:44;;;;;;;11.68;8.50;;;;;;;;;;5019133;28;20708;-69
2022/07/20 14:42:12;;;;;;;9.77;8.48;;;;;;;;;;5031625;28;20206;-68
2022/07/20 14:44:39;;;;;;;9.52;8.25;;;;;;;;;;5016780;28;20663;-69
2022/07/20 14:47:07;;;;;;;8.68;7.70;;;;;;;;;;5013874;28;20244;-71
2022/07/20 14:49:36;;;;;;;8.77;7.90;;;;;;;;;;5023783;28;20224;-69
2022/07/20 14:52:04;;;;;;;9.38;7.72;;;;;;;;;;5021456;28;20198;-69
2022/07/20 14:54:31;;;;;;;9.65;8.15;;;;;;;;;;5032523;28;20226;-69
2022/07/20 14:56:59;;;;;;;12.15;7.80;;;;;;;;;;5021993;28;20229;-69
2022/07/20 14:59:26;;;;;;;8.80;7.93;;;;;;;;;;5021106;28;20213;-69